createdAt,value
2022-11-04T00:01:58.270Z,10.32
2022-11-04T00:04:27.309Z,11.30
2022-11-04T00:06:54.613Z,10.10
2022-11-04T00:09:27.359Z,9.65
2022-11-04T00:12:13.134Z,10.02
2022-11-04T00:14:40.077Z,10.05
2022-11-04T00:17:19.664Z,10.50
2022-11-04T00:20:06.779Z,10.30
2022-11-04T00:22:52.282Z,10.77
2022-11-04T00:25:37.886Z,10.68
2022-11-04T00:28:33.713Z,11.10
2022-11-04T00:31:22.166Z,11.23
2022-11-04T00:33:49.847Z,11.35
2022-11-04T00:36:17.101Z,12.55
2022-11-04T00:38:43.796Z,10.77
2022-11-04T00:41:29.051Z,10.73
2022-11-04T00:43:58.108Z,10.65
2022-11-04T00:46:24.969Z,9.82
2022-11-04T00:48:51.671Z,10.82
2022-11-04T00:51:18.388Z,11.32
2022-11-04T00:53:45.443Z,10.93
2022-11-04T00:56:12.099Z,10.20
2022-11-04T00:58:38.704Z,9.43
2022-11-04T01:01:17.804Z,10.45
2022-11-04T01:03:49.000Z,10.93
2022-11-04T01:06:16.214Z,10.80
2022-11-04T01:08:43.099Z,10.90
2022-11-04T01:11:10.448Z,11.02
2022-11-04T01:13:38.368Z,11.00
2022-11-04T01:16:08.327Z,10.68
2022-11-04T01:18:36.113Z,11.20
2022-11-04T01:21:06.944Z,10.55
2022-11-04T01:23:36.996Z,10.70
2022-11-04T01:26:14.729Z,9.73
2022-11-04T01:28:41.771Z,11.88
2022-11-04T01:31:17.649Z,12.45
2022-11-04T01:33:44.685Z,11.18
2022-11-04T01:36:11.596Z,11.23
2022-11-04T01:38:38.336Z,11.45
2022-11-04T01:41:06.445Z,11.23
2022-11-04T01:43:52.950Z,11.40
2022-11-04T01:46:19.528Z,11.13
2022-11-04T01:48:46.514Z,11.60
2022-11-04T01:51:14.218Z,11.52
2022-11-04T01:53:43.097Z,12.05
2022-11-04T01:56:12.826Z,11.63
2022-11-04T01:58:44.116Z,11.45
2022-11-04T02:01:12.642Z,12.25
2022-11-04T02:03:48.677Z,11.32
2022-11-04T02:06:17.037Z,11.73
2022-11-04T02:08:44.227Z,12.43
2022-11-04T02:11:11.615Z,10.75
2022-11-04T02:13:38.255Z,11.95
2022-11-04T02:16:15.480Z,12.85
2022-11-04T02:18:53.860Z,12.68
2022-11-04T02:21:57.392Z,14.80
2022-11-04T02:24:54.191Z,11.95
2022-11-04T02:27:39.949Z,13.60
2022-11-04T02:30:19.840Z,13.70
2022-11-04T02:33:12.652Z,13.35
2022-11-04T02:35:57.384Z,12.30
2022-11-04T02:38:31.291Z,13.35
2022-11-04T02:41:06.943Z,14.27
2022-11-04T02:43:39.568Z,13.43
2022-11-04T02:46:21.405Z,13.63
2022-11-04T02:48:55.528Z,13.60
2022-11-04T02:51:37.442Z,14.95
2022-11-04T02:54:06.159Z,15.07
2022-11-04T02:56:38.738Z,15.50
2022-11-04T02:59:10.993Z,15.15
2022-11-04T03:01:41.763Z,16.92
2022-11-04T03:04:17.356Z,16.55
2022-11-04T03:06:49.050Z,16.98
2022-11-04T03:09:16.973Z,15.82
2022-11-04T03:11:48.078Z,16.60
2022-11-04T03:14:20.374Z,18.35
2022-11-04T03:16:53.832Z,18.65
2022-11-04T03:19:41.775Z,15.93
2022-11-04T03:22:13.766Z,14.70
2022-11-04T03:24:42.423Z,16.35
2022-11-04T03:27:27.160Z,15.75
2022-11-04T03:30:11.719Z,17.05
2022-11-04T03:32:59.134Z,18.77
2022-11-04T03:35:27.858Z,18.52
2022-11-04T03:37:55.308Z,19.58
2022-11-04T03:40:22.374Z,17.58
2022-11-04T03:42:57.364Z,17.45
2022-11-04T03:45:24.448Z,17.58
2022-11-04T03:47:52.120Z,17.98
2022-11-04T03:50:31.030Z,17.00
2022-11-04T03:52:59.101Z,17.83
2022-11-04T03:55:39.245Z,16.02
2022-11-04T03:58:27.103Z,17.02
2022-11-04T04:01:04.891Z,17.70
2022-11-04T04:03:40.914Z,17.70
2022-11-04T04:06:18.452Z,16.30
2022-11-04T04:09:00.989Z,15.57
2022-11-04T04:11:33.295Z,15.98
2022-11-04T04:14:08.390Z,15.38
2022-11-04T04:16:43.423Z,16.75
2022-11-04T04:19:24.103Z,15.85
2022-11-04T04:22:07.413Z,15.93
2022-11-04T04:24:57.270Z,15.57
2022-11-04T04:27:33.177Z,15.55
2022-11-04T04:30:12.255Z,15.60
2022-11-04T04:32:46.127Z,16.55
2022-11-04T04:35:32.704Z,15.27
2022-11-04T04:38:21.703Z,16.35
2022-11-04T04:41:15.930Z,15.70
2022-11-04T04:44:01.898Z,14.60
2022-11-04T04:46:32.275Z,15.57
2022-11-04T04:49:09.470Z,15.95
2022-11-04T04:51:39.835Z,15.20
2022-11-04T04:54:06.904Z,15.73
2022-11-04T04:56:33.562Z,16.73
2022-11-04T04:59:00.240Z,16.02
2022-11-04T05:01:27.013Z,16.88
2022-11-04T05:03:53.776Z,15.90
2022-11-04T05:06:20.482Z,15.75
2022-11-04T05:08:47.119Z,16.02
2022-11-04T05:11:13.864Z,16.83
2022-11-04T05:13:40.537Z,17.60
2022-11-04T05:16:10.356Z,17.50
2022-11-04T05:18:37.715Z,17.85
2022-11-04T05:21:10.545Z,17.70
2022-11-04T05:23:37.405Z,18.30
2022-11-04T05:26:04.568Z,16.48
2022-11-04T05:28:31.814Z,17.33
2022-11-04T05:30:58.505Z,16.60
2022-11-04T05:33:25.135Z,16.85
2022-11-04T05:35:51.798Z,16.33
2022-11-04T05:38:18.462Z,16.20
2022-11-04T05:40:45.146Z,17.23
2022-11-04T05:43:11.947Z,15.88
2022-11-04T05:45:38.697Z,16.85
2022-11-04T05:48:05.909Z,16.05
2022-11-04T05:50:33.499Z,16.30
2022-11-04T05:53:01.352Z,16.38
2022-11-04T05:55:28.635Z,16.83
2022-11-04T05:57:55.503Z,16.83
2022-11-04T06:00:22.275Z,16.27
2022-11-04T06:02:49.198Z,16.42
2022-11-04T06:05:15.934Z,17.42
2022-11-04T06:07:42.568Z,17.38
2022-11-04T06:10:09.604Z,19.15
2022-11-04T06:12:36.280Z,18.00
2022-11-04T06:15:03.141Z,17.50
2022-11-04T06:17:29.819Z,17.17
2022-11-04T06:19:56.466Z,17.17
2022-11-04T06:22:23.746Z,16.85
2022-11-04T06:24:50.703Z,16.52
2022-11-04T06:27:17.788Z,15.95
2022-11-04T06:29:44.486Z,16.13
2022-11-04T06:32:14.305Z,16.48
2022-11-04T06:34:41.311Z,16.73
2022-11-04T06:37:08.301Z,17.67
2022-11-04T06:39:34.872Z,16.25
2022-11-04T06:42:02.961Z,15.77
2022-11-04T06:44:30.158Z,17.80
2022-11-04T06:46:56.820Z,16.10
2022-11-04T06:49:23.650Z,15.57
2022-11-04T06:51:50.393Z,15.90
2022-11-04T06:54:17.699Z,15.88
2022-11-04T06:56:45.560Z,15.00
2022-11-04T06:59:18.016Z,14.93
2022-11-04T07:01:45.327Z,14.93
2022-11-04T07:04:12.056Z,14.93
2022-11-04T07:06:44.067Z,15.35
2022-11-04T07:09:13.424Z,14.80
2022-11-04T07:11:40.914Z,14.85
2022-11-04T07:14:09.084Z,15.48
2022-11-04T07:16:36.107Z,15.15
2022-11-04T07:19:03.270Z,15.05
2022-11-04T07:21:30.286Z,14.80
2022-11-04T07:23:57.006Z,13.55
2022-11-04T07:26:23.699Z,13.25
2022-11-04T07:28:51.004Z,13.48
2022-11-04T07:31:18.654Z,13.70
2022-11-04T07:33:50.171Z,13.70
2022-11-04T07:36:17.585Z,13.90
2022-11-04T07:38:45.383Z,12.20
2022-11-04T07:41:12.863Z,11.90
2022-11-04T07:43:39.524Z,12.23
2022-11-04T07:46:14.724Z,12.15
2022-11-04T07:48:41.413Z,12.65
2022-11-04T07:51:09.949Z,11.07
2022-11-04T07:53:36.907Z,11.35
2022-11-04T07:56:08.474Z,11.68
2022-11-04T07:58:35.293Z,12.27
2022-11-04T08:01:05.612Z,11.23
2022-11-04T08:03:32.998Z,12.00
2022-11-04T08:06:01.407Z,11.95
2022-11-04T08:08:28.817Z,12.18
2022-11-04T08:11:01.213Z,11.95
2022-11-04T08:13:29.446Z,12.60
2022-11-04T08:15:57.178Z,13.77
2022-11-04T08:18:24.002Z,11.68
2022-11-04T08:20:52.032Z,12.70
2022-11-04T08:23:18.927Z,12.88
2022-11-04T08:25:46.187Z,11.80
2022-11-04T08:28:17.600Z,11.90
2022-11-04T08:31:04.401Z,11.75
2022-11-04T08:33:33.225Z,11.85
2022-11-04T08:36:02.966Z,13.32
2022-11-04T08:38:29.682Z,13.65
2022-11-04T08:41:00.995Z,12.57
2022-11-04T08:43:27.708Z,12.40
2022-11-04T08:45:54.469Z,12.82
2022-11-04T08:48:21.529Z,11.65
2022-11-04T08:50:56.825Z,11.50
2022-11-04T08:53:23.562Z,12.38
2022-11-04T08:55:51.076Z,11.82
2022-11-04T08:58:18.958Z,10.60
2022-11-04T09:00:45.799Z,11.13
2022-11-04T09:03:13.051Z,10.88
2022-11-04T09:05:45.024Z,9.02
2022-11-04T09:08:12.429Z,9.13
2022-11-04T09:10:46.155Z,8.95
2022-11-04T09:13:13.414Z,9.02
2022-11-04T09:15:40.183Z,9.15
2022-11-04T09:18:07.549Z,9.55
2022-11-04T09:20:35.190Z,8.70
2022-11-04T09:23:01.862Z,9.00
2022-11-04T09:25:28.707Z,8.88
2022-11-04T09:27:55.348Z,9.32
2022-11-04T09:30:22.082Z,9.63
2022-11-04T09:32:52.539Z,9.65
2022-11-04T09:35:19.797Z,9.35
2022-11-04T09:37:47.176Z,9.35
2022-11-04T09:40:17.278Z,9.10
2022-11-04T09:43:02.004Z,9.02
2022-11-04T09:45:31.485Z,8.75
2022-11-04T09:48:07.348Z,8.93
2022-11-04T09:50:49.419Z,9.20
2022-11-04T09:53:22.881Z,8.63
2022-11-04T09:56:02.876Z,8.45
2022-11-04T09:58:38.429Z,8.85
2022-11-04T10:01:40.589Z,8.65
2022-11-04T10:04:25.432Z,8.43
2022-11-04T10:07:19.108Z,8.13
2022-11-04T10:10:11.078Z,8.38
2022-11-04T10:13:02.918Z,9.20
2022-11-04T10:15:38.392Z,8.98
2022-11-04T10:18:23.908Z,8.10
2022-11-04T10:20:50.837Z,8.43
2022-11-04T10:23:28.231Z,9.32
2022-11-04T10:26:16.823Z,8.25
2022-11-04T10:28:54.996Z,8.30
2022-11-04T10:31:21.668Z,8.27
2022-11-04T10:33:56.607Z,7.57
2022-11-04T10:36:24.780Z,7.88
2022-11-04T10:38:56.805Z,7.95
2022-11-04T10:41:34.142Z,7.97
2022-11-04T10:44:09.186Z,8.27
2022-11-04T10:46:51.878Z,7.50
2022-11-04T10:49:37.157Z,8.05
2022-11-04T10:54:40.076Z,7.57
2022-11-04T10:57:06.986Z,8.15
2022-11-04T10:59:52.953Z,7.65
2022-11-04T11:02:40.420Z,8.05
2022-11-04T11:05:19.308Z,7.80
2022-11-04T11:07:49.492Z,8.60
2022-11-04T11:10:24.388Z,8.68
2022-11-04T11:15:32.778Z,8.93
2022-11-04T11:18:22.516Z,8.50
2022-11-04T11:20:52.348Z,8.95
2022-11-04T11:23:51.230Z,9.23
2022-11-04T11:26:35.958Z,10.05
2022-11-04T11:29:07.126Z,9.75
2022-11-04T11:31:39.314Z,10.85
2022-11-04T11:34:38.961Z,9.88
2022-11-04T11:37:22.105Z,9.93
2022-11-04T11:39:48.860Z,10.23
2022-11-04T11:42:16.476Z,10.57
2022-11-04T11:44:48.017Z,10.75
2022-11-04T11:47:29.581Z,10.52
2022-11-04T11:50:16.966Z,10.88
2022-11-04T11:52:45.837Z,11.13
2022-11-04T11:55:20.667Z,10.75
2022-11-04T12:00:54.662Z,10.85
2022-11-04T12:10:07.033Z,10.30
2022-11-04T12:12:45.868Z,10.38
2022-11-04T12:15:18.915Z,9.65
2022-11-04T12:18:19.226Z,9.77
2022-11-04T12:21:03.715Z,10.60
2022-11-04T12:23:55.009Z,10.75
2022-11-04T12:26:30.502Z,10.57
2022-11-04T12:29:10.505Z,11.18
2022-11-04T12:32:12.348Z,10.68
2022-11-04T12:34:52.627Z,11.30
2022-11-04T12:37:37.784Z,11.05
2022-11-04T12:42:49.267Z,11.65
2022-11-04T12:45:38.939Z,9.88
2022-11-04T12:48:12.708Z,10.60
2022-11-04T12:50:58.722Z,9.63
2022-11-04T12:53:56.983Z,10.00
2022-11-04T12:56:38.202Z,9.23
2022-11-04T12:59:24.739Z,8.90
2022-11-04T13:02:05.638Z,10.77
2022-11-04T13:04:40.247Z,10.38
2022-11-04T13:07:19.557Z,9.82
2022-11-04T13:10:05.363Z,9.40
2022-11-04T13:12:38.369Z,10.57
2022-11-04T13:15:17.210Z,9.00
2022-11-04T13:17:46.189Z,9.50
2022-11-04T13:20:15.381Z,9.55
2022-11-04T13:22:51.839Z,10.43
2022-11-04T13:25:30.500Z,7.95
2022-11-04T13:27:58.586Z,3.08
2022-11-04T13:31:07.866Z,1.10
2022-11-04T13:33:56.565Z,0.55
2022-11-04T13:36:23.758Z,0.40
2022-11-04T13:38:54.787Z,0.40
2022-11-04T13:41:30.719Z,0.40
2022-11-04T13:43:59.518Z,0.30
2022-11-04T13:46:31.753Z,1.40
2022-11-04T13:49:06.234Z,0.10
2022-11-04T13:51:35.885Z,0.30
2022-11-04T13:54:03.717Z,0.17
2022-11-04T13:56:38.459Z,0.10
2022-11-04T13:59:28.036Z,0.55
2022-11-04T14:02:19.816Z,0.17
2022-11-04T14:04:47.585Z,0.03
2022-11-04T14:07:17.989Z,0.03
2022-11-04T14:09:44.753Z,0.03
2022-11-04T14:12:11.495Z,0.00
2022-11-04T14:14:39.880Z,0.05
2022-11-04T14:17:35.662Z,0.10
2022-11-04T14:20:07.837Z,0.10
2022-11-04T14:22:43.277Z,0.00
2022-11-04T14:25:34.505Z,0.00
2022-11-04T14:28:10.060Z,0.30
2022-11-04T14:30:54.851Z,0.00
2022-11-04T14:33:42.095Z,0.10
2022-11-04T14:36:20.762Z,0.00
2022-11-04T14:38:59.706Z,0.00
2022-11-04T14:41:29.462Z,0.05
2022-11-04T14:44:00.504Z,0.08
2022-11-04T14:46:34.317Z,0.13
2022-11-04T14:49:02.316Z,0.10
2022-11-04T14:51:40.827Z,0.00
2022-11-04T14:54:21.940Z,0.10
2022-11-04T14:56:49.071Z,0.00
2022-11-04T14:59:24.202Z,0.00
2022-11-04T15:01:52.583Z,0.08
2022-11-04T15:04:29.520Z,0.10
2022-11-04T15:06:58.028Z,0.10
2022-11-04T15:09:28.589Z,0.10
2022-11-04T15:12:37.375Z,0.00
2022-11-04T15:15:28.761Z,0.00
2022-11-04T15:18:02.716Z,0.10
2022-11-04T15:20:31.348Z,0.10
2022-11-04T15:23:00.666Z,0.20
2022-11-04T15:25:28.104Z,0.13
2022-11-04T15:27:56.539Z,0.00
2022-11-04T15:30:26.558Z,0.13
2022-11-04T15:33:02.720Z,0.00
2022-11-04T15:35:33.872Z,0.10
2022-11-04T15:38:03.921Z,0.10
2022-11-04T15:40:34.478Z,0.15
2022-11-04T15:43:04.150Z,0.00
2022-11-04T15:45:33.842Z,0.10
2022-11-04T15:48:22.647Z,0.10
2022-11-04T15:51:08.460Z,0.20
2022-11-04T15:53:50.039Z,0.08
2022-11-04T15:56:21.238Z,0.10
2022-11-04T15:58:48.066Z,4.15
2022-11-04T16:01:17.268Z,0.40
2022-11-04T16:03:52.555Z,0.22
2022-11-04T16:06:33.789Z,0.20
2022-11-04T16:09:27.311Z,0.20
2022-11-04T16:12:12.868Z,0.60
2022-11-04T16:14:46.420Z,0.30
2022-11-04T16:17:13.117Z,0.38
2022-11-04T16:19:39.981Z,0.40
2022-11-04T16:22:09.866Z,1.13
2022-11-04T16:24:41.750Z,0.40
2022-11-04T16:27:10.942Z,0.30
2022-11-04T16:29:39.896Z,0.20
2022-11-04T16:32:15.434Z,0.17
2022-11-04T16:34:42.967Z,0.13
2022-11-04T16:37:09.870Z,0.20
2022-11-04T16:39:36.874Z,0.80
2022-11-04T16:42:04.905Z,0.60
2022-11-04T16:44:32.448Z,0.30
2022-11-04T16:47:00.264Z,0.32
2022-11-04T16:49:27.199Z,0.28
2022-11-04T16:51:56.745Z,0.70
2022-11-04T16:54:24.673Z,1.67
2022-11-04T16:56:51.505Z,0.88
2022-11-04T16:59:18.167Z,5.40
2022-11-04T17:01:45.036Z,1.70
2022-11-04T17:04:11.881Z,3.30
2022-11-04T17:06:39.318Z,1.27
2022-11-04T17:09:35.150Z,1.30
2022-11-04T17:12:01.861Z,0.90
2022-11-04T17:14:28.589Z,1.10
2022-11-04T17:16:57.265Z,1.00
2022-11-04T17:19:23.953Z,1.10
2022-11-04T17:21:50.627Z,1.17
2022-11-04T17:24:17.365Z,0.50
2022-11-04T17:26:44.020Z,0.50
2022-11-04T17:29:14.426Z,0.28
2022-11-04T17:31:43.845Z,0.10
2022-11-04T17:34:10.880Z,0.30
2022-11-04T17:36:37.740Z,0.30
2022-11-04T17:39:04.383Z,0.20
2022-11-04T17:41:49.513Z,0.20
2022-11-04T17:46:44.904Z,0.70
2022-11-04T17:49:17.551Z,0.43
2022-11-04T17:51:47.164Z,0.30
2022-11-04T17:54:14.153Z,0.90
2022-11-04T17:56:41.229Z,1.50
2022-11-04T17:59:09.705Z,0.30
2022-11-04T18:01:37.066Z,0.35
2022-11-04T18:04:03.962Z,11.13
2022-11-04T18:06:33.033Z,4.25
2022-11-04T18:09:00.143Z,14.38
2022-11-04T18:11:47.799Z,6.40
2022-11-04T18:14:16.974Z,3.50
2022-11-04T18:16:48.024Z,3.10
2022-11-04T18:19:16.483Z,1.63
2022-11-04T18:21:43.356Z,1.92
2022-11-04T18:24:10.456Z,1.50
2022-11-04T18:26:37.246Z,2.00
2022-11-04T18:29:04.589Z,1.42
2022-11-04T18:31:35.754Z,0.30
2022-11-04T18:34:05.317Z,0.40
2022-11-04T18:36:33.890Z,0.90
2022-11-04T18:39:01.683Z,1.23
2022-11-04T18:41:28.581Z,1.75
2022-11-04T18:43:55.278Z,0.70
2022-11-04T18:46:21.962Z,0.50
2022-11-04T18:48:50.600Z,0.60
2022-11-04T18:51:19.839Z,0.45
2022-11-04T18:53:46.804Z,0.32
2022-11-04T18:56:15.808Z,0.30
2022-11-04T18:58:42.627Z,0.35
2022-11-04T19:01:20.818Z,1.70
2022-11-04T19:03:48.666Z,0.60
2022-11-04T19:06:21.919Z,0.20
2022-11-04T19:08:50.626Z,0.40
2022-11-04T19:11:29.620Z,0.75
2022-11-04T19:13:58.907Z,0.85
2022-11-04T19:16:27.479Z,1.10
2022-11-04T19:18:54.995Z,0.82
2022-11-04T19:21:26.842Z,0.70
2022-11-04T19:23:54.224Z,0.30
2022-11-04T19:26:23.544Z,1.30
2022-11-04T19:28:50.930Z,1.40
2022-11-04T19:31:23.547Z,0.57
2022-11-04T19:33:50.924Z,0.43
2022-11-04T19:36:19.664Z,0.30
2022-11-04T19:38:46.387Z,0.30
2022-11-04T19:41:37.220Z,0.30
2022-11-04T19:44:07.068Z,1.10
2022-11-04T19:46:34.624Z,0.85
2022-11-04T19:49:01.754Z,0.52
2022-11-04T19:51:31.920Z,0.20
2022-11-04T19:53:58.967Z,1.15
2022-11-04T19:56:26.384Z,1.40
2022-11-04T19:58:53.034Z,1.30
2022-11-04T20:01:21.282Z,1.13
2022-11-04T20:03:48.164Z,0.68
2022-11-04T20:06:16.182Z,0.45
2022-11-04T20:08:44.624Z,0.90
2022-11-04T20:11:12.944Z,0.70
2022-11-04T20:13:49.586Z,0.70
2022-11-04T20:16:16.725Z,0.60
2022-11-04T20:18:44.924Z,0.80
2022-11-04T20:21:12.426Z,1.10
2022-11-04T20:23:39.443Z,1.30
2022-11-04T20:26:23.008Z,0.90
2022-11-04T20:28:50.424Z,0.75
2022-11-04T20:31:21.967Z,0.80
2022-11-04T20:33:49.984Z,0.65
2022-11-04T20:36:18.607Z,0.60
2022-11-04T20:38:48.547Z,0.60
2022-11-04T20:41:19.430Z,0.60
2022-11-04T20:43:47.828Z,0.40
2022-11-04T20:46:21.948Z,0.50
2022-11-04T20:48:49.128Z,0.60
2022-11-04T20:51:19.317Z,0.63
2022-11-04T20:53:46.468Z,0.57
2022-11-04T20:56:16.008Z,0.50
2022-11-04T20:58:44.330Z,0.40
2022-11-04T21:01:17.766Z,0.60
2022-11-04T21:03:44.989Z,0.60
2022-11-04T21:06:12.388Z,0.68
2022-11-04T21:08:39.749Z,0.50
2022-11-04T21:11:07.395Z,0.50
2022-11-04T21:13:34.707Z,0.45
2022-11-04T21:16:02.303Z,0.40
2022-11-04T21:18:29.402Z,0.30
2022-11-04T21:20:57.352Z,0.30
2022-11-04T21:23:24.305Z,0.38
2022-11-04T21:25:55.831Z,0.30
2022-11-04T21:28:23.301Z,0.40
2022-11-04T21:30:52.671Z,0.40
2022-11-04T21:33:19.394Z,0.38
2022-11-04T21:35:48.846Z,0.50
2022-11-04T21:38:17.320Z,0.40
2022-11-04T21:40:44.706Z,0.10
2022-11-04T21:43:12.307Z,0.32
2022-11-04T21:45:39.226Z,0.57
2022-11-04T21:48:06.167Z,0.50
2022-11-04T21:50:32.859Z,0.30
2022-11-04T21:52:59.579Z,0.40
2022-11-04T21:55:26.305Z,0.52
2022-11-04T21:57:52.997Z,0.60
2022-11-04T22:00:19.664Z,0.60
2022-11-04T22:02:52.628Z,0.52
2022-11-04T22:05:19.396Z,0.57
2022-11-04T22:08:04.741Z,0.70
2022-11-04T22:10:31.482Z,0.60
2022-11-04T22:12:58.105Z,1.02
2022-11-04T22:15:43.594Z,0.60
2022-11-04T22:18:10.344Z,0.30
2022-11-04T22:20:37.264Z,0.40
2022-11-04T22:23:04.359Z,0.20
2022-11-04T22:25:31.351Z,0.40
2022-11-04T22:27:58.109Z,0.60
2022-11-04T22:30:25.027Z,0.40
2022-11-04T22:32:52.598Z,0.35
2022-11-04T22:35:19.420Z,0.30
2022-11-04T22:37:46.065Z,0.30
2022-11-04T22:40:12.989Z,0.20
2022-11-04T22:42:40.111Z,0.40
2022-11-04T22:45:09.153Z,0.40
2022-11-04T22:47:37.912Z,0.38
2022-11-04T22:50:05.502Z,0.40
2022-11-04T22:52:32.145Z,0.40
2022-11-04T22:54:58.834Z,0.40
2022-11-04T22:57:25.586Z,0.52
2022-11-04T22:59:52.265Z,0.30
2022-11-04T23:02:19.273Z,0.20
2022-11-04T23:04:46.014Z,0.10
2022-11-04T23:07:12.676Z,0.28
2022-11-04T23:09:59.385Z,0.20
2022-11-04T23:12:44.598Z,0.15
2022-11-04T23:18:14.860Z,0.10
2022-11-04T23:20:41.503Z,0.28
2022-11-04T23:23:26.991Z,0.30
2022-11-04T23:25:53.703Z,0.20
2022-11-04T23:28:39.191Z,0.20
2022-11-04T23:31:05.948Z,0.20
2022-11-04T23:33:51.347Z,0.30
2022-11-04T23:36:36.722Z,0.20
2022-11-04T23:39:03.467Z,0.40
2022-11-04T23:41:48.724Z,0.20
2022-11-04T23:44:35.317Z,0.20
2022-11-04T23:47:20.682Z,0.30
2022-11-04T23:50:05.567Z,0.20
2022-11-04T23:52:55.755Z,0.30
2022-11-04T23:55:41.225Z,0.38
2022-11-04T23:58:27.709Z,0.40
